createdAt,value
2019-01-30T00:02:08.464Z,17.45
2019-01-30T00:04:38.844Z,16.20
2019-01-30T00:07:09.336Z,15.10
2019-01-30T00:09:39.734Z,15.77
2019-01-30T00:12:10.179Z,14.43
2019-01-30T00:14:40.601Z,16.83
2019-01-30T00:17:10.876Z,15.80
2019-01-30T00:19:41.261Z,15.77
2019-01-30T00:22:11.601Z,15.43
2019-01-30T00:24:41.837Z,15.93
2019-01-30T00:27:12.167Z,15.65
2019-01-30T00:29:42.524Z,15.73
2019-01-30T00:32:15.065Z,14.73
2019-01-30T00:34:45.399Z,15.93
2019-01-30T00:37:15.615Z,15.87
2019-01-30T00:39:45.835Z,15.17
2019-01-30T00:42:16.130Z,14.55
2019-01-30T00:44:46.388Z,14.77
2019-01-30T00:47:16.652Z,14.57
2019-01-30T00:49:47.021Z,15.10
2019-01-30T00:52:17.348Z,14.30
2019-01-30T00:54:47.701Z,14.93
2019-01-30T00:57:17.922Z,15.35
2019-01-30T00:59:48.289Z,16.53
2019-01-30T01:02:18.615Z,13.65
2019-01-30T01:04:49.013Z,15.23
2019-01-30T01:07:19.254Z,14.47
2019-01-30T01:09:49.569Z,14.20
2019-01-30T01:12:19.950Z,14.33
2019-01-30T01:14:50.470Z,13.57
2019-01-30T01:17:20.770Z,13.20
2019-01-30T01:19:50.990Z,14.20
2019-01-30T01:22:21.772Z,13.57
2019-01-30T01:24:52.115Z,12.93
2019-01-30T01:27:22.399Z,12.23
2019-01-30T01:29:52.711Z,11.97
2019-01-30T01:32:22.927Z,13.00
2019-01-30T01:34:53.217Z,12.33
2019-01-30T01:37:23.509Z,13.10
2019-01-30T01:40:02.339Z,12.27
2019-01-30T01:42:32.707Z,12.77
2019-01-30T01:45:03.062Z,12.73
2019-01-30T01:47:33.483Z,11.20
2019-01-30T01:50:04.106Z,12.37
2019-01-30T01:52:34.374Z,11.77
2019-01-30T01:55:05.326Z,11.70
2019-01-30T01:57:35.642Z,11.97
2019-01-30T02:00:08.799Z,12.97
2019-01-30T02:02:39.091Z,12.37
2019-01-30T02:05:12.729Z,13.37
2019-01-30T02:07:43.024Z,11.80
2019-01-30T02:10:16.821Z,11.90
2019-01-30T02:12:47.296Z,11.43
2019-01-30T02:15:20.397Z,12.23
2019-01-30T02:17:51.191Z,12.50
2019-01-30T02:20:39.537Z,11.38
2019-01-30T02:23:09.822Z,12.20
2019-01-30T02:25:40.583Z,11.90
2019-01-30T02:28:10.863Z,12.58
2019-01-30T02:30:47.570Z,12.37
2019-01-30T02:33:13.166Z,11.73
2019-01-30T02:35:43.550Z,12.30
2019-01-30T02:38:13.842Z,13.27
2019-01-30T02:40:52.167Z,12.77
2019-01-30T02:43:22.428Z,14.73
2019-01-30T02:45:52.716Z,13.00
2019-01-30T02:48:23.060Z,13.88
2019-01-30T02:50:53.468Z,14.50
2019-01-30T02:53:23.730Z,15.35
2019-01-30T02:55:54.042Z,12.70
2019-01-30T02:58:24.323Z,14.73
2019-01-30T03:00:59.408Z,14.70
2019-01-30T03:03:26.831Z,15.23
2019-01-30T03:05:57.260Z,13.37
2019-01-30T03:08:27.638Z,14.50
2019-01-30T03:10:57.896Z,14.30
2019-01-30T03:13:28.255Z,15.27
2019-01-30T03:15:58.573Z,14.70
2019-01-30T03:18:30.208Z,15.40
2019-01-30T03:21:00.551Z,15.17
2019-01-30T03:23:31.080Z,15.87
2019-01-30T03:26:03.174Z,14.17
2019-01-30T03:28:33.413Z,15.57
2019-01-30T03:31:16.842Z,16.13
2019-01-30T03:33:38.781Z,16.40
2019-01-30T03:36:09.419Z,15.90
2019-01-30T03:38:39.640Z,15.00
2019-01-30T03:41:10.053Z,16.27
2019-01-30T03:43:40.529Z,15.90
2019-01-30T03:46:10.984Z,16.30
2019-01-30T03:48:41.251Z,15.73
2019-01-30T03:51:11.601Z,16.05
2019-01-30T03:53:41.951Z,16.97
2019-01-30T03:56:12.243Z,16.60
2019-01-30T03:58:42.570Z,16.37
2019-01-30T04:01:12.850Z,17.10
2019-01-30T04:03:43.262Z,15.70
2019-01-30T04:06:13.576Z,17.13
2019-01-30T04:08:43.947Z,18.43
2019-01-30T04:11:14.273Z,16.50
2019-01-30T04:13:44.540Z,18.67
2019-01-30T04:16:14.881Z,17.60
2019-01-30T04:18:45.174Z,17.40
2019-01-30T04:21:15.641Z,18.53
2019-01-30T04:23:49.071Z,19.15
2019-01-30T04:26:19.299Z,18.63
2019-01-30T04:28:49.712Z,18.80
2019-01-30T04:31:20.086Z,19.40
2019-01-30T04:33:50.343Z,21.23
2019-01-30T04:36:20.635Z,19.48
2019-01-30T04:38:51.088Z,20.63
2019-01-30T04:41:21.348Z,20.70
2019-01-30T04:43:51.683Z,20.57
2019-01-30T04:46:21.923Z,19.15
2019-01-30T04:48:52.228Z,21.50
2019-01-30T04:51:22.603Z,20.25
2019-01-30T04:53:52.896Z,21.80
2019-01-30T04:56:23.213Z,21.97
2019-01-30T04:58:54.776Z,20.17
2019-01-30T05:01:25.025Z,21.00
2019-01-30T05:03:55.340Z,20.63
2019-01-30T05:06:25.739Z,19.95
2019-01-30T05:08:56.258Z,21.10
2019-01-30T05:11:26.652Z,20.60
2019-01-30T05:13:56.879Z,18.93
2019-01-30T05:16:27.242Z,19.43
2019-01-30T05:18:57.521Z,21.57
2019-01-30T05:21:27.885Z,20.47
2019-01-30T05:23:58.213Z,20.97
2019-01-30T05:26:28.554Z,21.17
2019-01-30T05:28:58.858Z,20.87
2019-01-30T05:31:29.239Z,21.27
2019-01-30T05:33:59.503Z,21.07
2019-01-30T05:36:29.853Z,21.70
2019-01-30T05:39:00.130Z,21.03
2019-01-30T05:41:30.519Z,21.77
2019-01-30T05:44:00.764Z,19.00
2019-01-30T05:46:31.123Z,20.40
2019-01-30T05:49:01.438Z,20.33
2019-01-30T05:51:31.793Z,21.00
2019-01-30T05:54:02.097Z,20.97
2019-01-30T05:56:32.407Z,21.50
2019-01-30T05:59:02.846Z,19.62
2019-01-30T06:01:33.503Z,20.83
2019-01-30T06:04:03.986Z,20.45
2019-01-30T06:06:34.536Z,22.00
2019-01-30T06:09:06.565Z,18.77
2019-01-30T06:11:37.035Z,20.30
2019-01-30T06:14:07.539Z,18.93
2019-01-30T06:16:38.042Z,19.97
2019-01-30T06:19:08.864Z,19.73
2019-01-30T06:21:41.325Z,18.70
2019-01-30T06:24:12.075Z,19.07
2019-01-30T06:26:42.837Z,18.60
2019-01-30T06:29:13.411Z,20.77
2019-01-30T06:31:44.187Z,19.53
2019-01-30T06:34:14.737Z,16.23
2019-01-30T06:36:45.207Z,19.00
2019-01-30T06:39:15.790Z,19.33
2019-01-30T06:41:46.385Z,18.20
2019-01-30T06:44:16.899Z,18.73
2019-01-30T06:46:47.477Z,19.97
2019-01-30T06:49:18.058Z,16.20
2019-01-30T06:51:48.534Z,19.03
2019-01-30T06:54:19.050Z,18.43
2019-01-30T06:56:49.562Z,16.67
2019-01-30T06:59:20.002Z,16.63
2019-01-30T07:01:50.639Z,17.20
2019-01-30T07:04:21.203Z,15.97
2019-01-30T07:06:55.302Z,17.10
2019-01-30T07:09:25.807Z,16.40
2019-01-30T07:11:56.191Z,16.07
2019-01-30T07:14:26.680Z,16.47
2019-01-30T07:16:57.183Z,15.90
2019-01-30T07:19:27.781Z,16.30
2019-01-30T07:21:58.310Z,16.77
2019-01-30T07:24:28.651Z,16.23
2019-01-30T07:26:58.970Z,16.67
2019-01-30T07:29:29.342Z,15.80
2019-01-30T07:31:59.667Z,15.47
2019-01-30T07:34:29.868Z,15.97
2019-01-30T07:37:00.198Z,15.33
2019-01-30T07:39:30.540Z,16.27
2019-01-30T07:42:00.885Z,14.85
2019-01-30T07:44:31.247Z,15.40
2019-01-30T07:47:01.553Z,14.43
2019-01-30T07:49:31.710Z,14.23
2019-01-30T07:52:02.003Z,13.72
2019-01-30T07:54:32.238Z,14.30
2019-01-30T07:57:05.281Z,14.23
2019-01-30T07:59:35.623Z,14.80
2019-01-30T08:02:06.880Z,14.37
2019-01-30T08:04:39.746Z,14.90
2019-01-30T08:07:10.038Z,13.10
2019-01-30T08:09:41.827Z,14.00
2019-01-30T08:12:12.700Z,14.43
2019-01-30T08:14:43.058Z,13.37
2019-01-30T08:17:13.433Z,14.23
2019-01-30T08:19:43.704Z,12.73
2019-01-30T08:22:14.078Z,13.43
2019-01-30T08:24:44.858Z,14.97
2019-01-30T08:27:15.590Z,13.45
2019-01-30T08:29:46.383Z,13.47
2019-01-30T08:32:16.916Z,13.80
2019-01-30T08:34:47.360Z,13.73
2019-01-30T08:37:17.630Z,13.57
2019-01-30T08:39:49.603Z,13.47
2019-01-30T08:42:20.049Z,13.13
2019-01-30T08:44:50.367Z,13.63
2019-01-30T08:47:20.690Z,14.07
2019-01-30T08:49:51.093Z,13.87
2019-01-30T08:52:21.489Z,14.20
2019-01-30T08:54:51.812Z,13.00
2019-01-30T08:57:22.216Z,13.48
2019-01-30T08:59:52.665Z,12.33
2019-01-30T09:02:23.114Z,12.95
2019-01-30T09:04:55.567Z,11.60
2019-01-30T09:07:25.805Z,13.80
2019-01-30T09:09:56.305Z,12.00
2019-01-30T09:12:26.816Z,11.53
2019-01-30T09:14:57.613Z,12.87
2019-01-30T09:17:29.041Z,11.50
2019-01-30T09:20:01.982Z,12.40
2019-01-30T09:22:32.446Z,12.83
2019-01-30T09:25:05.060Z,12.77
2019-01-30T09:27:35.507Z,11.25
2019-01-30T09:30:10.044Z,12.07
2019-01-30T09:32:40.419Z,12.07
2019-01-30T09:35:18.701Z,12.07
2019-01-30T09:37:50.908Z,11.93
2019-01-30T09:40:21.398Z,11.97
2019-01-30T09:42:55.187Z,11.73
2019-01-30T09:45:26.444Z,11.17
2019-01-30T09:47:56.951Z,12.20
2019-01-30T09:50:27.317Z,12.67
2019-01-30T09:53:01.082Z,12.27
2019-01-30T09:55:31.526Z,13.10
2019-01-30T09:58:02.357Z,12.88
2019-01-30T10:00:37.827Z,11.87
2019-01-30T10:03:11.720Z,12.20
2019-01-30T10:05:42.154Z,12.07
2019-01-30T10:08:12.490Z,11.90
2019-01-30T10:10:42.883Z,11.83
2019-01-30T10:13:13.405Z,11.97
2019-01-30T10:15:45.294Z,10.47
2019-01-30T10:18:16.716Z,10.95
2019-01-30T10:20:48.563Z,10.80
2019-01-30T10:23:20.389Z,11.40
2019-01-30T10:25:50.773Z,11.23
2019-01-30T10:28:21.828Z,10.30
2019-01-30T10:30:54.301Z,10.90
2019-01-30T10:33:27.637Z,10.10
2019-01-30T10:36:00.931Z,9.93
2019-01-30T10:38:32.674Z,10.40
2019-01-30T10:41:06.726Z,10.37
2019-01-30T10:43:38.766Z,9.13
2019-01-30T10:46:12.010Z,9.80
2019-01-30T10:48:42.258Z,9.80
2019-01-30T10:51:12.558Z,9.70
2019-01-30T10:53:43.024Z,9.03
2019-01-30T10:56:13.502Z,9.25
2019-01-30T10:58:45.754Z,10.30
2019-01-30T11:01:16.301Z,9.40
2019-01-30T11:03:57.070Z,9.10
2019-01-30T11:06:23.886Z,10.48
2019-01-30T11:08:54.525Z,9.73
2019-01-30T11:11:26.943Z,9.37
2019-01-30T11:13:58.146Z,8.97
2019-01-30T11:16:35.264Z,9.03
2019-01-30T11:19:09.321Z,9.30
2019-01-30T11:21:44.547Z,9.23
2019-01-30T11:24:16.217Z,9.33
2019-01-30T11:26:49.898Z,9.20
2019-01-30T11:29:21.451Z,8.85
2019-01-30T11:31:51.967Z,8.58
2019-01-30T11:34:22.515Z,9.53
2019-01-30T11:36:53.146Z,9.53
2019-01-30T11:39:26.327Z,8.53
2019-01-30T11:41:57.728Z,8.90
2019-01-30T11:44:28.732Z,9.25
2019-01-30T11:46:59.257Z,8.20
2019-01-30T11:49:30.373Z,9.27
2019-01-30T11:52:07.297Z,9.20
2019-01-30T11:54:38.848Z,9.27
2019-01-30T11:57:08.843Z,9.53
2019-01-30T11:59:57.962Z,9.00
2019-01-30T12:02:14.581Z,9.43
2019-01-30T12:04:45.536Z,9.40
2019-01-30T12:07:16.059Z,10.20
2019-01-30T12:09:47.470Z,9.57
2019-01-30T12:12:22.576Z,9.70
2019-01-30T12:14:53.046Z,9.67
2019-01-30T12:17:23.499Z,9.43
2019-01-30T12:19:54.085Z,9.40
2019-01-30T12:22:24.544Z,9.30
2019-01-30T12:24:55.069Z,9.18
2019-01-30T12:27:25.516Z,10.03
2019-01-30T12:29:55.926Z,9.83
2019-01-30T12:32:27.659Z,10.27
2019-01-30T12:35:00.828Z,9.70
2019-01-30T12:37:34.511Z,9.83
2019-01-30T12:40:07.611Z,10.30
2019-01-30T12:42:38.073Z,10.03
2019-01-30T12:45:11.667Z,10.27
2019-01-30T12:47:45.002Z,10.68
2019-01-30T12:50:15.661Z,9.88
2019-01-30T12:52:46.294Z,10.00
2019-01-30T12:55:18.321Z,10.53
2019-01-30T12:57:55.770Z,11.03
2019-01-30T13:00:31.799Z,10.83
2019-01-30T13:03:07.058Z,10.57
2019-01-30T13:05:38.334Z,10.63
2019-01-30T13:08:09.141Z,9.93
2019-01-30T13:10:39.847Z,11.20
2019-01-30T13:13:13.983Z,11.20
2019-01-30T13:15:48.650Z,11.70
2019-01-30T13:18:20.715Z,11.00
2019-01-30T13:20:55.041Z,11.10
2019-01-30T13:23:25.650Z,10.70
2019-01-30T13:25:59.275Z,11.60
2019-01-30T13:28:29.828Z,10.77
2019-01-30T13:31:03.206Z,11.20
2019-01-30T13:33:33.710Z,11.30
2019-01-30T13:36:04.499Z,11.27
2019-01-30T13:38:45.152Z,11.43
2019-01-30T13:41:15.579Z,11.03
2019-01-30T13:43:47.228Z,11.30
2019-01-30T13:46:17.838Z,11.53
2019-01-30T13:48:54.813Z,11.00
2019-01-30T13:51:26.386Z,11.70
2019-01-30T13:54:13.225Z,11.88
2019-01-30T13:57:14.327Z,11.60
2019-01-30T13:59:45.252Z,12.20
2019-01-30T14:02:15.883Z,12.57
2019-01-30T14:04:59.141Z,13.23
2019-01-30T14:07:21.170Z,12.23
2019-01-30T14:09:51.921Z,11.83
2019-01-30T14:12:34.247Z,12.20
2019-01-30T14:15:09.461Z,12.53
2019-01-30T14:17:40.127Z,12.43
2019-01-30T14:20:12.199Z,13.13
2019-01-30T14:22:43.064Z,13.07
2019-01-30T14:25:16.654Z,13.20
2019-01-30T14:27:47.271Z,12.98
2019-01-30T14:30:21.949Z,12.90
2019-01-30T14:32:57.706Z,13.13
2019-01-30T14:35:31.174Z,12.90
2019-01-30T14:38:06.321Z,13.30
2019-01-30T14:40:40.095Z,13.85
2019-01-30T14:43:12.497Z,13.23
2019-01-30T14:45:50.946Z,12.23
2019-01-30T14:48:24.660Z,13.93
2019-01-30T14:50:55.643Z,13.23
2019-01-30T14:53:31.621Z,13.93
2019-01-30T14:56:04.991Z,14.50
2019-01-30T14:58:42.322Z,13.80
2019-01-30T15:01:13.440Z,13.37
2019-01-30T15:03:50.308Z,13.80
2019-01-30T15:06:28.778Z,14.73
2019-01-30T15:08:59.573Z,13.60
2019-01-30T15:11:30.280Z,14.37
2019-01-30T15:14:15.666Z,14.87
2019-01-30T15:16:59.047Z,14.05
2019-01-30T15:19:32.613Z,14.03
2019-01-30T15:22:04.638Z,15.33
2019-01-30T15:24:37.932Z,14.33
2019-01-30T15:27:11.146Z,14.63
2019-01-30T15:29:45.130Z,13.87
2019-01-30T15:32:15.940Z,14.73
2019-01-30T15:34:46.594Z,14.47
2019-01-30T15:37:21.753Z,15.43
2019-01-30T15:39:52.812Z,14.57
2019-01-30T15:42:27.925Z,15.67
2019-01-30T15:45:01.797Z,14.70
2019-01-30T15:47:38.846Z,15.37
2019-01-30T15:50:23.343Z,15.93
2019-01-30T15:52:56.027Z,15.23
2019-01-30T15:55:36.929Z,14.40
2019-01-30T15:58:10.139Z,15.53
2019-01-30T16:00:59.070Z,16.27
2019-01-30T16:03:36.517Z,16.20
2019-01-30T16:06:10.723Z,16.03
2019-01-30T16:08:51.054Z,16.10
2019-01-30T16:11:30.800Z,16.17
2019-01-30T16:14:13.603Z,16.87
2019-01-30T16:16:44.380Z,17.50
2019-01-30T16:19:16.872Z,16.70
2019-01-30T16:21:48.190Z,16.83
2019-01-30T16:24:22.007Z,17.90
2019-01-30T16:26:52.566Z,17.27
2019-01-30T16:29:32.124Z,16.05
2019-01-30T16:32:21.916Z,17.70
2019-01-30T16:34:57.234Z,19.20
2019-01-30T16:37:27.988Z,17.27
2019-01-30T16:40:03.316Z,18.30
2019-01-30T16:42:41.455Z,19.37
2019-01-30T16:45:27.900Z,20.43
2019-01-30T16:48:55.793Z,19.47
2019-01-30T16:52:36.977Z,19.73
2019-01-30T16:55:16.422Z,20.43
2019-01-30T16:57:59.982Z,19.67
2019-01-30T17:00:46.661Z,21.00
2019-01-30T17:03:19.525Z,19.85
2019-01-30T17:05:54.361Z,19.40
2019-01-30T17:08:32.504Z,22.13
2019-01-30T17:11:36.306Z,21.57
2019-01-30T17:14:12.583Z,22.73
2019-01-30T17:16:43.122Z,22.83
2019-01-30T17:19:13.920Z,24.77
2019-01-30T17:21:52.408Z,22.17
2019-01-30T17:24:25.872Z,22.80
2019-01-30T17:26:59.891Z,23.98
2019-01-30T17:29:31.427Z,21.27
2019-01-30T17:32:06.420Z,24.87
2019-01-30T17:34:42.131Z,20.00
2019-01-30T17:37:20.190Z,23.13
2019-01-30T17:39:51.019Z,25.57
2019-01-30T17:42:22.795Z,25.72
2019-01-30T17:44:53.625Z,26.53
2019-01-30T17:47:26.893Z,26.47
2019-01-30T17:50:01.315Z,24.50
2019-01-30T17:52:33.629Z,23.27
2019-01-30T17:55:04.590Z,27.37
2019-01-30T17:57:35.293Z,27.53
2019-01-30T18:00:37.955Z,27.10
2019-01-30T18:03:08.510Z,27.83
2019-01-30T18:05:40.470Z,27.30
2019-01-30T18:08:11.097Z,26.70
2019-01-30T18:10:41.504Z,26.97
2019-01-30T18:13:11.953Z,23.22
2019-01-30T18:15:43.946Z,26.68
2019-01-30T18:18:14.261Z,27.83
2019-01-30T18:20:44.784Z,28.50
2019-01-30T18:23:15.247Z,29.10
2019-01-30T18:25:46.288Z,29.80
2019-01-30T18:28:16.706Z,29.40
2019-01-30T18:30:50.036Z,29.10
2019-01-30T18:33:21.164Z,25.92
2019-01-30T18:35:51.647Z,28.50
2019-01-30T18:38:21.992Z,27.80
2019-01-30T18:40:52.404Z,29.03
2019-01-30T18:43:22.693Z,27.95
2019-01-30T18:45:53.097Z,29.70
2019-01-30T18:48:24.641Z,32.17
2019-01-30T18:50:56.959Z,32.10
2019-01-30T18:53:27.386Z,28.27
2019-01-30T18:56:03.490Z,32.90
2019-01-30T18:58:34.267Z,33.47
2019-01-30T19:01:06.930Z,32.83
2019-01-30T19:03:37.896Z,33.13
2019-01-30T19:06:08.748Z,35.03
2019-01-30T19:08:41.298Z,32.80
2019-01-30T19:11:12.162Z,31.50
2019-01-30T19:13:43.072Z,30.50
2019-01-30T19:16:14.118Z,33.30
2019-01-30T19:18:44.967Z,32.87
2019-01-30T19:21:16.255Z,34.13
2019-01-30T19:23:46.972Z,34.13
2019-01-30T19:26:17.995Z,37.00
2019-01-30T19:28:49.105Z,33.83
2019-01-30T19:31:20.306Z,38.53
2019-01-30T19:33:54.060Z,38.07
2019-01-30T19:36:25.179Z,36.68
2019-01-30T19:38:55.939Z,37.27
2019-01-30T19:41:26.577Z,35.97
2019-01-30T19:43:57.212Z,37.37
2019-01-30T19:46:27.910Z,34.17
2019-01-30T19:48:59.046Z,36.33
2019-01-30T19:51:30.183Z,34.10
2019-01-30T19:54:02.520Z,32.87
2019-01-30T19:56:33.408Z,34.40
2019-01-30T19:59:04.127Z,35.87
2019-01-30T20:01:36.171Z,35.80
2019-01-30T20:04:07.881Z,34.53
2019-01-30T20:06:39.226Z,38.07
2019-01-30T20:09:18.553Z,35.53
2019-01-30T20:11:50.567Z,38.47
2019-01-30T20:14:21.130Z,32.87
2019-01-30T20:16:52.021Z,35.93
2019-01-30T20:19:22.941Z,33.92
2019-01-30T20:22:00.637Z,39.77
2019-01-30T20:24:31.290Z,38.30
2019-01-30T20:27:04.526Z,39.20
2019-01-30T20:29:35.247Z,38.60
2019-01-30T20:32:06.318Z,39.43
2019-01-30T20:34:37.180Z,37.93
2019-01-30T20:37:07.937Z,37.20
2019-01-30T20:39:38.800Z,37.87
2019-01-30T20:42:09.769Z,37.63
2019-01-30T20:44:40.520Z,38.00
2019-01-30T20:47:11.626Z,36.90
2019-01-30T20:49:42.350Z,38.00
2019-01-30T20:52:15.490Z,39.15
2019-01-30T20:54:46.305Z,41.03
2019-01-30T20:57:18.612Z,40.10
2019-01-30T20:59:49.445Z,34.23
2019-01-30T21:02:20.302Z,41.10
2019-01-30T21:04:51.090Z,39.13
2019-01-30T21:07:22.008Z,40.20
2019-01-30T21:09:52.663Z,38.53
2019-01-30T21:12:23.558Z,40.13
2019-01-30T21:14:54.366Z,40.83
2019-01-30T21:17:27.897Z,35.43
2019-01-30T21:19:58.779Z,41.60
2019-01-30T21:22:32.264Z,41.60
2019-01-30T21:25:03.119Z,42.40
2019-01-30T21:27:34.044Z,41.40
2019-01-30T21:30:06.097Z,40.60
2019-01-30T21:32:40.470Z,41.17
2019-01-30T21:35:11.640Z,41.70
2019-01-30T21:37:48.952Z,44.18
2019-01-30T21:40:20.490Z,40.97
2019-01-30T21:42:51.456Z,38.07
2019-01-30T21:45:24.547Z,39.20
2019-01-30T21:47:55.226Z,36.00
2019-01-30T21:50:25.792Z,39.00
2019-01-30T21:52:56.454Z,42.80
2019-01-30T21:55:34.396Z,38.10
2019-01-30T21:58:08.234Z,40.07
2019-01-30T22:00:39.096Z,43.70
2019-01-30T22:03:09.873Z,40.63
2019-01-30T22:05:41.452Z,44.30
2019-01-30T22:08:12.197Z,40.65
2019-01-30T22:10:43.188Z,41.57
2019-01-30T22:13:13.791Z,41.07
2019-01-30T22:15:44.483Z,39.33
2019-01-30T22:18:14.809Z,38.65
2019-01-30T22:20:45.285Z,37.57
2019-01-30T22:23:17.572Z,36.70
2019-01-30T22:25:49.494Z,35.33
2019-01-30T22:28:20.160Z,40.43
2019-01-30T22:30:50.536Z,39.80
2019-01-30T22:33:21.003Z,38.35
2019-01-30T22:35:51.433Z,34.80
2019-01-30T22:38:21.927Z,37.83
2019-01-30T22:40:52.223Z,34.33
2019-01-30T22:43:25.001Z,36.47
2019-01-30T22:45:56.465Z,37.10
2019-01-30T22:48:26.899Z,39.00
2019-01-30T22:50:58.766Z,35.07
2019-01-30T22:53:29.302Z,34.30
2019-01-30T22:55:59.678Z,37.97
2019-01-30T22:58:30.366Z,39.67
2019-01-30T23:01:52.855Z,35.50
2019-01-30T23:05:37.724Z,37.73
2019-01-30T23:08:44.590Z,35.17
2019-01-30T23:12:13.299Z,36.98
2019-01-30T23:15:00.721Z,36.90
2019-01-30T23:18:37.848Z,33.17
2019-01-30T23:21:18.989Z,32.47
2019-01-30T23:24:47.855Z,35.27
2019-01-30T23:27:34.870Z,35.23
2019-01-30T23:30:45.165Z,32.80
2019-01-30T23:33:44.246Z,36.28
2019-01-30T23:37:10.783Z,37.17
2019-01-30T23:40:23.973Z,39.07
2019-01-30T23:43:54.257Z,36.13
2019-01-30T23:46:57.316Z,39.25
2019-01-30T23:50:38.629Z,41.83
2019-01-30T23:54:06.116Z,37.27
2019-01-30T23:57:32.797Z,40.90
